Time;durP1;ratioP1;P1;durP2;ratioP2;P2;SDS_P1;SDS_P2;PMS_P1;PMS_P2;Temp;Humidity;BMP_temperature;BMP_pressure;BME280_temperature;BME280_humidity;BME280_pressure;Samples;Min_cycle;Max_cycle;Signal;HPM_P1;HPM_P2
2022/04/26 03:36:32;;;;;;;8.83;4.97;;;;;;;;;;5059213;28;19912;-78
2022/04/26 03:38:58;;;;;;;6.85;4.47;;;;;;;;;;5056952;28;20028;-78
2022/04/26 03:41:23;;;;;;;5.85;3.97;;;;;;;;;;5058254;28;20507;-78
2022/04/26 03:43:48;;;;;;;5.80;4.25;;;;;;;;;;5059134;28;20425;-78
2022/04/26 03:46:13;;;;;;;8.43;4.30;;;;;;;;;;5058161;28;20371;-78
2022/04/26 03:48:38;;;;;;;5.82;4.20;;;;;;;;;;5057808;28;20049;-78
2022/04/26 03:51:04;;;;;;;5.47;3.67;;;;;;;;;;5058021;28;20017;-78
2022/04/26 03:53:29;;;;;;;5.10;3.55;;;;;;;;;;5057064;28;20033;-78
2022/04/26 03:55:54;;;;;;;5.70;3.72;;;;;;;;;;5057470;28;20393;-78
2022/04/26 03:58:20;;;;;;;6.75;3.78;;;;;;;;;;5057199;28;20032;-77
2022/04/26 04:00:45;;;;;;;5.03;3.72;;;;;;;;;;5057777;28;20025;-78
2022/04/26 04:03:10;;;;;;;7.03;4.38;;;;;;;;;;5054380;28;20116;-77
2022/04/26 04:05:36;;;;;;;8.52;4.50;;;;;;;;;;5055647;28;20139;-77
2022/04/26 04:08:01;;;;;;;6.28;4.03;;;;;;;;;;5054410;28;20048;-78
2022/04/26 04:10:26;;;;;;;6.90;4.10;;;;;;;;;;5057134;28;20029;-80
2022/04/26 04:12:51;;;;;;;6.00;3.63;;;;;;;;;;5056933;28;20494;-77
2022/04/26 04:15:17;;;;;;;7.28;4.20;;;;;;;;;;5055990;28;20094;-78
2022/04/26 04:17:42;;;;;;;6.53;4.18;;;;;;;;;;5056387;28;20040;-79
2022/04/26 04:20:08;;;;;;;6.88;3.88;;;;;;;;;;5056086;28;20120;-79
2022/04/26 04:22:33;;;;;;;12.88;3.95;;;;;;;;;;5056761;28;20036;-79
2022/04/26 04:24:59;;;;;;;6.70;3.83;;;;;;;;;;5056688;28;20028;-78
2022/04/26 04:27:24;;;;;;;7.47;4.28;;;;;;;;;;5056844;28;20482;-78
2022/04/26 04:29:51;;;;;;;5.47;3.80;;;;;;;;;;5056185;28;20028;-79
2022/04/26 04:32:17;;;;;;;5.60;3.92;;;;;;;;;;5057348;28;20021;-79
2022/04/26 04:34:42;;;;;;;6.55;4.22;;;;;;;;;;5054787;28;20025;-78
2022/04/26 04:37:08;;;;;;;5.53;4.00;;;;;;;;;;5057405;28;20395;-79
2022/04/26 04:39:33;;;;;;;6.57;3.67;;;;;;;;;;5055408;28;20112;-79
2022/04/26 04:41:59;;;;;;;6.75;3.92;;;;;;;;;;5056838;28;20048;-79
2022/04/26 04:44:25;;;;;;;6.10;3.65;;;;;;;;;;5055110;28;20025;-79
2022/04/26 04:46:51;;;;;;;5.20;3.67;;;;;;;;;;5055439;28;20043;-77
2022/04/26 04:49:16;;;;;;;7.07;3.83;;;;;;;;;;5054453;28;20486;-77
2022/04/26 04:51:41;;;;;;;6.35;4.07;;;;;;;;;;5053111;28;20497;-77
2022/04/26 04:54:06;;;;;;;5.70;3.70;;;;;;;;;;5054548;28;20052;-77
2022/04/26 04:56:32;;;;;;;5.97;3.93;;;;;;;;;;5053789;28;20029;-78
2022/04/26 04:58:57;;;;;;;5.63;3.55;;;;;;;;;;5056608;28;20262;-78
2022/04/26 05:01:22;;;;;;;5.38;3.70;;;;;;;;;;5054304;28;20167;-78
2022/04/26 05:03:48;;;;;;;5.50;4.00;;;;;;;;;;5052710;28;20028;-77
2022/04/26 05:06:14;;;;;;;5.85;4.20;;;;;;;;;;5053921;28;20032;-78
2022/04/26 05:08:41;;;;;;;7.95;4.45;;;;;;;;;;5054521;28;20031;-78
2022/04/26 05:11:21;;;;;;;10.88;4.78;;;;;;;;;;5056209;28;20426;-78
2022/04/26 05:13:46;;;;;;;11.15;5.55;;;;;;;;;;5056065;28;20021;-78
2022/04/26 05:16:11;;;;;;;13.50;4.22;;;;;;;;;;5054738;28;20041;-77
2022/04/26 05:18:37;;;;;;;7.85;4.47;;;;;;;;;;5055486;28;20033;-78
2022/04/26 05:21:09;;;;;;;6.85;4.55;;;;;;;;;;5052885;28;20036;-77
2022/04/26 05:26:19;;;;;;;;;;;;;;;;;;5055627;28;20071;-77
2022/04/26 05:28:45;;;;;;;5.80;3.75;;;;;;;;;;5057285;28;19908;-78
2022/04/26 05:31:10;;;;;;;9.60;3.90;;;;;;;;;;5055681;28;20036;-78
2022/04/26 05:33:35;;;;;;;6.97;4.18;;;;;;;;;;5054142;28;20028;-78
2022/04/26 05:36:01;;;;;;;6.40;4.13;;;;;;;;;;5053482;28;20539;-78
2022/04/26 05:38:27;;;;;;;5.85;3.97;;;;;;;;;;5052830;28;20029;-78
2022/04/26 05:40:52;;;;;;;7.03;4.28;;;;;;;;;;5053726;28;20086;-77
2022/04/26 05:43:17;;;;;;;4.47;2.95;;;;;;;;;;5051950;28;20399;-78
2022/04/26 05:45:42;;;;;;;4.53;3.45;;;;;;;;;;5055147;28;20453;-78
2022/04/26 05:48:07;;;;;;;6.75;3.90;;;;;;;;;;5054178;28;20462;-78
2022/04/26 05:50:33;;;;;;;6.40;4.43;;;;;;;;;;5053063;28;20047;-78
2022/04/26 05:52:58;;;;;;;7.68;4.40;;;;;;;;;;5054042;28;20083;-78
2022/04/26 05:55:23;;;;;;;8.98;4.53;;;;;;;;;;5053844;28;20493;-78
2022/04/26 05:57:49;;;;;;;6.20;4.50;;;;;;;;;;5053894;28;20057;-78
2022/04/26 06:00:14;;;;;;;6.05;4.18;;;;;;;;;;5054115;28;20375;-79
2022/04/26 06:02:41;;;;;;;5.45;3.90;;;;;;;;;;5055456;28;20064;-79
2022/04/26 06:05:06;;;;;;;8.82;4.40;;;;;;;;;;5053564;28;20551;-78
2022/04/26 06:07:32;;;;;;;6.60;4.20;;;;;;;;;;5054207;28;20108;-78
2022/04/26 06:09:58;;;;;;;5.28;4.22;;;;;;;;;;5054381;28;20482;-78
2022/04/26 06:12:28;;;;;;;6.20;4.43;;;;;;;;;;5054922;28;20505;-79
2022/04/26 06:14:55;;;;;;;6.90;4.60;;;;;;;;;;5055202;28;20029;-78
2022/04/26 06:17:20;;;;;;;5.68;4.28;;;;;;;;;;5055269;28;20028;-79
2022/04/26 06:19:45;;;;;;;8.00;4.50;;;;;;;;;;5055451;28;20025;-79
2022/04/26 06:22:11;;;;;;;7.22;4.72;;;;;;;;;;5054668;28;20021;-79
2022/04/26 06:24:36;;;;;;;6.88;4.63;;;;;;;;;;5054783;28;20029;-78
2022/04/26 06:27:02;;;;;;;9.98;4.75;;;;;;;;;;5054002;28;20107;-79
2022/04/26 06:29:28;;;;;;;6.57;4.50;;;;;;;;;;5055180;28;20402;-78
2022/04/26 06:31:53;;;;;;;8.27;5.40;;;;;;;;;;5054559;28;20028;-78
2022/04/26 06:34:18;;;;;;;7.03;4.88;;;;;;;;;;5052649;28;20016;-78
2022/04/26 06:36:43;;;;;;;7.18;4.93;;;;;;;;;;5054062;28;20033;-79
2022/04/26 06:39:08;;;;;;;6.88;5.00;;;;;;;;;;5055018;28;20025;-78
2022/04/26 06:41:34;;;;;;;7.87;5.03;;;;;;;;;;5055914;28;20482;-79
2022/04/26 06:43:59;;;;;;;7.60;4.90;;;;;;;;;;5055016;28;20392;-78
2022/04/26 06:46:24;;;;;;;8.75;4.47;;;;;;;;;;5055409;28;20051;-78
2022/04/26 06:48:49;;;;;;;6.90;4.90;;;;;;;;;;5058807;28;20375;-78
2022/04/26 06:51:16;;;;;;;7.70;4.73;;;;;;;;;;5058812;28;20055;-78
2022/04/26 06:53:42;;;;;;;6.15;4.32;;;;;;;;;;5058587;28;20265;-78
2022/04/26 06:56:07;;;;;;;5.85;4.22;;;;;;;;;;5059236;28;20393;-78
2022/04/26 06:58:33;;;;;;;5.53;4.22;;;;;;;;;;5059862;28;20033;-78
2022/04/26 07:00:59;;;;;;;6.03;4.15;;;;;;;;;;5058246;28;20447;-82
2022/04/26 07:03:25;;;;;;;6.07;4.70;;;;;;;;;;5056405;28;20021;-78
2022/04/26 07:05:51;;;;;;;5.60;4.38;;;;;;;;;;5056991;28;20027;-78
2022/04/26 07:08:16;;;;;;;7.00;4.80;;;;;;;;;;5057359;28;20390;-79
2022/04/26 07:10:42;;;;;;;6.23;4.40;;;;;;;;;;5055396;28;20104;-77
2022/04/26 07:13:07;;;;;;;5.97;4.80;;;;;;;;;;5056792;28;20273;-77
2022/04/26 07:15:32;;;;;;;8.10;4.90;;;;;;;;;;5055190;28;20377;-78
2022/04/26 07:17:57;;;;;;;6.38;4.80;;;;;;;;;;5056511;28;20681;-78
2022/04/26 07:20:23;;;;;;;6.63;4.77;;;;;;;;;;5056326;28;20031;-78
2022/04/26 07:22:48;;;;;;;8.25;5.10;;;;;;;;;;5056600;28;20286;-77
2022/04/26 07:25:13;;;;;;;11.07;5.82;;;;;;;;;;5056332;28;20056;-78
2022/04/26 07:27:40;;;;;;;8.02;5.45;;;;;;;;;;5055740;28;20029;-78
2022/04/26 07:30:06;;;;;;;7.40;5.72;;;;;;;;;;5055865;28;20029;-78
2022/04/26 07:35:15;;;;;;;11.98;6.47;;;;;;;;;;5056657;28;20158;-78
2022/04/26 07:37:40;;;;;;;7.93;6.13;;;;;;;;;;5057723;28;20037;-78
2022/04/26 07:40:07;;;;;;;10.95;6.93;;;;;;;;;;5058085;28;20021;-79
2022/04/26 07:42:33;;;;;;;8.00;5.80;;;;;;;;;;5058790;28;20025;-79
2022/04/26 07:44:58;;;;;;;10.60;6.93;;;;;;;;;;5057737;28;20081;-78
2022/04/26 07:47:26;;;;;;;8.45;6.65;;;;;;;;;;5058374;28;20028;-79
2022/04/26 07:49:52;;;;;;;11.75;7.13;;;;;;;;;;5057068;28;20375;-80
2022/04/26 07:52:18;;;;;;;10.52;6.80;;;;;;;;;;5056235;28;20021;-78
2022/04/26 07:54:45;;;;;;;9.65;6.75;;;;;;;;;;5058113;28;20055;-78
2022/04/26 07:57:11;;;;;;;11.32;7.30;;;;;;;;;;5054673;28;20025;-78
2022/04/26 07:59:36;;;;;;;11.63;7.30;;;;;;;;;;5055372;28;20024;-78
2022/04/26 08:02:01;;;;;;;11.38;8.15;;;;;;;;;;5056393;28;20051;-78
2022/04/26 08:04:27;;;;;;;12.32;7.15;;;;;;;;;;5055495;28;20086;-77
2022/04/26 08:06:52;;;;;;;12.18;7.57;;;;;;;;;;5056221;28;20021;-79
2022/04/26 08:09:17;;;;;;;12.33;7.50;;;;;;;;;;5057743;28;20032;-78
2022/04/26 08:11:42;;;;;;;12.32;7.78;;;;;;;;;;5058091;28;20254;-78
2022/04/26 08:14:08;;;;;;;13.05;8.00;;;;;;;;;;5056090;28;20021;-79
2022/04/26 08:16:33;;;;;;;13.75;7.85;;;;;;;;;;5055889;28;20033;-78
2022/04/26 08:18:59;;;;;;;12.93;7.93;;;;;;;;;;5054968;28;20520;-78
2022/04/26 08:21:24;;;;;;;14.23;9.18;;;;;;;;;;5055282;28;20029;-77
2022/04/26 08:29:18;;;;;;;15.35;8.70;;;;;;;;;;5057475;28;20036;-78
2022/04/26 08:31:44;;;;;;;14.25;8.32;;;;;;;;;;5056985;28;20029;-79
2022/04/26 08:34:10;;;;;;;15.68;8.98;;;;;;;;;;5057594;28;20025;-79
2022/04/26 08:36:35;;;;;;;14.60;8.70;;;;;;;;;;5057492;28;20029;-78
2022/04/26 08:39:00;;;;;;;14.63;8.55;;;;;;;;;;5056728;28;20032;-79
2022/04/26 08:41:26;;;;;;;11.60;7.60;;;;;;;;;;5057452;28;20060;-79
2022/04/26 08:43:51;;;;;;;14.68;8.05;;;;;;;;;;5055548;28;20112;-78
2022/04/26 08:46:17;;;;;;;13.77;7.90;;;;;;;;;;5054337;28;20107;-77
2022/04/26 08:51:26;;;;;;;11.82;7.13;;;;;;;;;;5057203;28;20052;-78
2022/04/26 08:53:51;;;;;;;12.27;6.65;;;;;;;;;;5055841;28;20427;-77
2022/04/26 08:56:18;;;;;;;11.48;6.97;;;;;;;;;;5054632;28;20078;-77
2022/04/26 08:58:43;;;;;;;12.57;7.25;;;;;;;;;;5055217;28;20393;-78
2022/04/26 09:01:13;;;;;;;8.47;6.03;;;;;;;;;;5055339;28;20016;-76
2022/04/26 09:03:40;;;;;;;9.98;5.13;;;;;;;;;;5054069;28;20278;-77
2022/04/26 09:06:13;;;;;;;12.02;4.88;;;;;;;;;;5053850;28;20374;-77
2022/04/26 09:08:40;;;;;;;10.20;5.70;;;;;;;;;;5054174;28;20382;-78
2022/04/26 09:11:33;;;;;;;7.25;5.15;;;;;;;;;;5055154;28;20032;-78
2022/04/26 09:13:59;;;;;;;7.85;4.72;;;;;;;;;;5055209;28;20490;-78
2022/04/26 09:16:25;;;;;;;9.05;4.57;;;;;;;;;;5055033;28;20032;-78
2022/04/26 09:18:58;;;;;;;11.43;4.57;;;;;;;;;;5055487;28;20135;-78
2022/04/26 09:21:29;;;;;;;6.63;4.20;;;;;;;;;;5054502;28;20059;-78
2022/04/26 09:23:59;;;;;;;9.43;4.93;;;;;;;;;;5055018;28;20171;-78
2022/04/26 09:26:32;;;;;;;7.80;5.10;;;;;;;;;;5055981;28;20418;-79
2022/04/26 09:28:58;;;;;;;7.40;5.18;;;;;;;;;;5054842;28;20032;-78
2022/04/26 09:31:31;;;;;;;7.50;4.70;;;;;;;;;;5056177;28;20025;-79
2022/04/26 09:34:04;;;;;;;12.20;5.87;;;;;;;;;;5052666;28;20031;-77
2022/04/26 09:36:31;;;;;;;7.43;4.72;;;;;;;;;;5052461;28;20254;-77
2022/04/26 09:38:58;;;;;;;6.28;4.15;;;;;;;;;;5053908;28;20060;-77
2022/04/26 09:41:25;;;;;;;8.07;4.38;;;;;;;;;;5052349;28;20025;-78
2022/04/26 09:44:09;;;;;;;5.35;3.95;;;;;;;;;;5054249;28;20112;-78
2022/04/26 09:46:48;;;;;;;5.88;4.13;;;;;;;;;;5052423;28;20035;-77
2022/04/26 09:49:17;;;;;;;7.95;3.83;;;;;;;;;;5054236;28;20064;-77
2022/04/26 09:51:43;;;;;;;6.60;3.95;;;;;;;;;;5052676;28;20039;-78
2022/04/26 09:54:08;;;;;;;6.13;3.92;;;;;;;;;;5053093;28;20024;-77
2022/04/26 09:56:34;;;;;;;9.10;4.10;;;;;;;;;;5053435;28;20451;-77
2022/04/26 09:59:03;;;;;;;7.50;3.55;;;;;;;;;;5053119;28;20684;-76
2022/04/26 10:01:39;;;;;;;7.18;3.60;;;;;;;;;;5053114;28;20024;-77
2022/04/26 10:04:07;;;;;;;7.45;3.80;;;;;;;;;;5051777;28;20025;-77
2022/04/26 10:06:37;;;;;;;6.57;3.50;;;;;;;;;;5053283;28;20059;-77
2022/04/26 10:09:04;;;;;;;4.90;3.65;;;;;;;;;;5053792;28;20463;-77
2022/04/26 10:11:30;;;;;;;5.03;3.35;;;;;;;;;;5053425;28;20028;-78
2022/04/26 10:13:56;;;;;;;5.28;3.55;;;;;;;;;;5052246;28;20025;-78
2022/04/26 10:16:22;;;;;;;5.60;3.65;;;;;;;;;;5052313;28;20032;-78
2022/04/26 10:18:48;;;;;;;8.02;3.35;;;;;;;;;;5053510;28;20029;-77
2022/04/26 10:21:22;;;;;;;6.15;3.33;;;;;;;;;;5053103;28;20017;-77
2022/04/26 10:23:50;;;;;;;5.50;3.42;;;;;;;;;;5057130;28;20535;-77
2022/04/26 10:26:22;;;;;;;6.25;3.92;;;;;;;;;;5056789;28;20402;-78
2022/04/26 10:28:53;;;;;;;4.50;2.83;;;;;;;;;;5056787;28;20021;-77
2022/04/26 10:31:20;;;;;;;7.60;3.28;;;;;;;;;;5055514;28;20095;-77
2022/04/26 10:33:46;;;;;;;5.10;3.25;;;;;;;;;;5056792;28;20389;-77
2022/04/26 10:36:21;;;;;;;4.35;3.10;;;;;;;;;;5056763;28;20390;-77
2022/04/26 10:39:05;;;;;;;6.10;3.25;;;;;;;;;;5056393;28;20509;-77
2022/04/26 10:41:46;;;;;;;4.15;3.05;;;;;;;;;;5057019;28;20556;-78
2022/04/26 10:44:21;;;;;;;4.53;2.97;;;;;;;;;;5056867;28;20064;-76
2022/04/26 10:47:07;;;;;;;4.45;3.35;;;;;;;;;;5056838;28;20055;-77
2022/04/26 10:49:32;;;;;;;4.35;2.95;;;;;;;;;;5057357;28;20025;-78
2022/04/26 10:52:22;;;;;;;4.27;3.00;;;;;;;;;;5056351;28;20028;-77
2022/04/26 10:55:02;;;;;;;4.30;3.13;;;;;;;;;;5056898;28;20418;-77
2022/04/26 10:57:42;;;;;;;3.63;3.00;;;;;;;;;;5055314;28;20032;-77
2022/04/26 11:00:07;;;;;;;3.97;3.08;;;;;;;;;;5055537;28;20024;-78
2022/04/26 11:02:39;;;;;;;4.53;3.28;;;;;;;;;;5057322;28;20059;-77
2022/04/26 11:05:09;;;;;;;6.20;3.03;;;;;;;;;;5057270;28;20025;-78
2022/04/26 11:07:35;;;;;;;4.22;3.00;;;;;;;;;;5058143;28;20035;-78
2022/04/26 11:10:04;;;;;;;4.70;3.03;;;;;;;;;;5056949;28;20025;-77
2022/04/26 11:12:33;;;;;;;4.72;2.65;;;;;;;;;;5056032;28;20027;-77
2022/04/26 11:15:00;;;;;;;4.57;2.97;;;;;;;;;;5054837;28;20029;-77
2022/04/26 11:17:29;;;;;;;4.03;2.83;;;;;;;;;;5054714;28;20032;-77
2022/04/26 11:20:01;;;;;;;5.22;3.17;;;;;;;;;;5053679;28;20021;-77
2022/04/26 11:22:27;;;;;;;4.78;3.15;;;;;;;;;;5053441;28;20032;-77
2022/04/26 11:28:00;;;;;;;6.07;3.10;;;;;;;;;;5056348;28;20078;-77
2022/04/26 11:30:35;;;;;;;7.60;3.40;;;;;;;;;;5055928;28;20028;-78
2022/04/26 11:33:06;;;;;;;5.47;3.20;;;;;;;;;;5053200;28;20017;-76
2022/04/26 11:35:32;;;;;;;5.00;3.55;;;;;;;;;;5054989;28;20021;-77
2022/04/26 11:38:15;;;;;;;5.40;3.40;;;;;;;;;;5053160;28;20028;-78
2022/04/26 11:40:42;;;;;;;7.75;3.70;;;;;;;;;;5054607;28;20032;-77
2022/04/26 11:43:14;;;;;;;4.32;3.08;;;;;;;;;;5054453;28;20043;-78
2022/04/26 11:45:44;;;;;;;3.80;3.00;;;;;;;;;;5054669;28;20536;-77
2022/04/26 11:48:17;;;;;;;3.47;2.70;;;;;;;;;;5055383;28;20030;-79
2022/04/26 11:50:46;;;;;;;7.57;3.50;;;;;;;;;;5054479;28;20021;-77
2022/04/26 11:53:17;;;;;;;3.65;3.00;;;;;;;;;;5053294;28;20123;-79
2022/04/26 11:55:51;;;;;;;4.35;2.95;;;;;;;;;;5055108;28;20032;-78
2022/04/26 11:58:22;;;;;;;4.15;2.78;;;;;;;;;;5054940;28;20036;-77
2022/04/26 12:01:00;;;;;;;3.80;2.70;;;;;;;;;;5054512;28;20059;-77
2022/04/26 12:03:31;;;;;;;3.30;2.53;;;;;;;;;;5054262;28;20021;-77
2022/04/26 12:06:05;;;;;;;4.22;3.00;;;;;;;;;;5054175;28;20048;-78
2022/04/26 12:08:44;;;;;;;3.53;2.58;;;;;;;;;;5054273;28;20029;-78
2022/04/26 12:11:22;;;;;;;5.18;3.30;;;;;;;;;;5055126;28;20033;-78
2022/04/26 12:14:23;;;;;;;4.45;2.88;;;;;;;;;;5051903;28;79784;-78
2022/04/26 12:16:54;;;;;;;3.45;2.72;;;;;;;;;;5028657;28;20041;-78
2022/04/26 12:19:32;;;;;;;4.32;2.80;;;;;;;;;;5052921;28;20490;-78
2022/04/26 12:21:59;;;;;;;4.93;3.17;;;;;;;;;;5055878;28;20040;-77
2022/04/26 12:24:27;;;;;;;4.55;2.70;;;;;;;;;;5055369;28;20033;-78
2022/04/26 12:26:53;;;;;;;3.72;2.60;;;;;;;;;;5054718;28;20100;-78
2022/04/26 12:29:19;;;;;;;5.72;2.97;;;;;;;;;;5054025;28;20079;-77
2022/04/26 12:31:47;;;;;;;4.05;3.00;;;;;;;;;;5054374;28;20041;-77
2022/04/26 12:34:24;;;;;;;4.40;2.78;;;;;;;;;;5055139;28;20017;-78
2022/04/26 12:36:58;;;;;;;4.03;2.42;;;;;;;;;;5055036;28;20029;-77
2022/04/26 12:39:39;;;;;;;6.05;2.42;;;;;;;;;;5054486;28;20033;-77
2022/04/26 12:42:07;;;;;;;4.03;2.53;;;;;;;;;;5054341;28;20037;-77
2022/04/26 12:44:33;;;;;;;3.75;2.28;;;;;;;;;;5053602;28;20449;-77
2022/04/26 12:50:33;;;;;;;3.95;2.75;;;;;;;;;;5054399;28;20548;-77
2022/04/26 12:53:02;;;;;;;3.92;2.40;;;;;;;;;;5036920;28;20112;-78
2022/04/26 12:55:28;;;;;;;4.57;2.55;;;;;;;;;;5055897;28;20028;-78
2022/04/26 12:57:55;;;;;;;5.90;3.00;;;;;;;;;;5054896;28;20039;-78
2022/04/26 13:00:23;;;;;;;3.80;2.67;;;;;;;;;;5054945;28;20435;-77
2022/04/26 13:02:54;;;;;;;5.75;2.55;;;;;;;;;;5054095;28;20032;-77
2022/04/26 13:05:21;;;;;;;5.47;2.78;;;;;;;;;;5053902;28;20445;-77
2022/04/26 13:07:47;;;;;;;4.15;2.53;;;;;;;;;;5053940;28;20025;-77
2022/04/26 13:10:14;;;;;;;3.92;2.90;;;;;;;;;;5053942;28;20032;-77
2022/04/26 13:12:39;;;;;;;3.97;2.60;;;;;;;;;;5052470;28;20055;-77
2022/04/26 13:15:08;;;;;;;3.05;2.33;;;;;;;;;;5052401;28;20033;-77
2022/04/26 13:17:33;;;;;;;4.43;2.83;;;;;;;;;;5053101;28;20032;-77
2022/04/26 13:19:58;;;;;;;4.45;2.50;;;;;;;;;;5053388;28;20026;-78
2022/04/26 13:22:23;;;;;;;3.77;2.20;;;;;;;;;;5053442;28;20025;-77
2022/04/26 13:24:51;;;;;;;3.63;2.22;;;;;;;;;;5053318;28;20285;-77
2022/04/26 13:27:16;;;;;;;6.50;2.10;;;;;;;;;;5053609;28;20074;-77
2022/04/26 13:29:42;;;;;;;3.42;2.22;;;;;;;;;;5052038;28;20111;-77
2022/04/26 13:32:07;;;;;;;4.03;2.30;;;;;;;;;;5053395;28;20025;-77
2022/04/26 13:34:33;;;;;;;2.90;2.40;;;;;;;;;;5053310;28;20024;-77
2022/04/26 13:36:58;;;;;;;4.68;2.15;;;;;;;;;;5053714;28;20467;-77
2022/04/26 13:39:24;;;;;;;4.43;2.15;;;;;;;;;;5053945;28;20017;-76
2022/04/26 13:41:52;;;;;;;2.10;1.90;;;;;;;;;;5053358;28;20482;-78
2022/04/26 13:44:20;;;;;;;2.70;2.15;;;;;;;;;;5053276;28;20276;-77
2022/04/26 13:46:46;;;;;;;3.80;2.15;;;;;;;;;;5051624;28;20512;-77
2022/04/26 13:49:11;;;;;;;3.60;2.10;;;;;;;;;;5051786;28;20020;-77
2022/04/26 13:51:36;;;;;;;3.13;2.10;;;;;;;;;;5052860;28;20108;-78
2022/04/26 13:54:02;;;;;;;3.23;2.07;;;;;;;;;;5053173;28;20033;-77
2022/04/26 13:56:27;;;;;;;3.97;2.20;;;;;;;;;;5052744;28;20262;-77
2022/04/26 13:58:52;;;;;;;3.47;2.27;;;;;;;;;;5052909;28;20021;-77
2022/04/26 14:01:17;;;;;;;3.53;2.27;;;;;;;;;;5052895;28;20255;-77
2022/04/26 14:03:43;;;;;;;3.77;2.23;;;;;;;;;;5052692;28;20277;-77
2022/04/26 14:06:10;;;;;;;2.95;2.25;;;;;;;;;;5051963;28;20254;-77
2022/04/26 14:08:36;;;;;;;3.30;2.50;;;;;;;;;;5053738;28;20036;-77
2022/04/26 14:11:02;;;;;;;4.40;2.90;;;;;;;;;;5053910;28;20083;-77
2022/04/26 14:13:27;;;;;;;3.97;2.60;;;;;;;;;;5052002;28;20020;-77
2022/04/26 14:24:05;;;;;;;4.20;2.15;;;;;;;;;;5053408;28;20036;-75
2022/04/26 14:26:31;;;;;;;6.57;2.88;;;;;;;;;;5051486;28;20035;-76
2022/04/26 14:28:56;;;;;;;4.10;2.67;;;;;;;;;;5052678;28;20452;-77
2022/04/26 14:31:21;;;;;;;3.63;2.53;;;;;;;;;;5053284;28;20029;-77
2022/04/26 14:33:49;;;;;;;4.27;2.60;;;;;;;;;;5052914;28;20031;-77
2022/04/26 14:36:14;;;;;;;5.43;2.63;;;;;;;;;;5053370;28;20454;-77
2022/04/26 14:38:39;;;;;;;3.80;2.50;;;;;;;;;;5051226;28;20025;-75
2022/04/26 14:41:05;;;;;;;3.60;2.13;;;;;;;;;;5051051;28;20029;-76
2022/04/26 14:43:30;;;;;;;3.20;2.43;;;;;;;;;;5052924;28;20078;-76
2022/04/26 14:45:55;;;;;;;4.40;2.33;;;;;;;;;;5051846;28;20262;-77
2022/04/26 14:48:23;;;;;;;3.28;2.47;;;;;;;;;;5052157;28;20300;-77
2022/04/26 14:50:48;;;;;;;3.10;2.65;;;;;;;;;;5052344;28;20032;-77
2022/04/26 14:53:14;;;;;;;3.30;2.58;;;;;;;;;;5052523;28;20025;-77
2022/04/26 14:55:39;;;;;;;5.82;2.90;;;;;;;;;;5052217;28;20024;-77
2022/04/26 14:58:06;;;;;;;4.25;2.50;;;;;;;;;;5052359;28;20029;-76
2022/04/26 15:00:35;;;;;;;3.05;2.28;;;;;;;;;;5052489;28;20021;-77
2022/04/26 15:03:00;;;;;;;3.35;2.25;;;;;;;;;;5052302;28;20025;-76
2022/04/26 15:05:26;;;;;;;5.20;2.50;;;;;;;;;;5052317;28;20025;-77
2022/04/26 15:10:55;;;;;;;3.08;2.30;;;;;;;;;;5033730;28;20033;-77
2022/04/26 15:18:48;;;;;;;3.20;2.65;;;;;;;;;;5056190;28;20032;-77
2022/04/26 15:21:13;;;;;;;3.58;2.45;;;;;;;;;;5055657;28;20076;-76
2022/04/26 15:23:39;;;;;;;4.23;2.30;;;;;;;;;;5055694;28;20031;-77
2022/04/26 15:26:06;;;;;;;4.97;2.65;;;;;;;;;;5055546;28;20250;-77
2022/04/26 15:28:33;;;;;;;3.28;2.22;;;;;;;;;;5056347;28;20021;-77
2022/04/26 15:30:59;;;;;;;3.40;2.38;;;;;;;;;;5055203;28;20021;-77
2022/04/26 15:33:24;;;;;;;5.43;2.72;;;;;;;;;;5055902;28;20100;-77
2022/04/26 15:35:51;;;;;;;5.00;2.50;;;;;;;;;;5054397;28;20021;-76
2022/04/26 15:38:16;;;;;;;3.50;2.20;;;;;;;;;;5056036;28;20090;-76
2022/04/26 15:40:46;;;;;;;4.03;2.10;;;;;;;;;;5055868;28;20024;-77
2022/04/26 15:43:11;;;;;;;2.75;1.95;;;;;;;;;;5055498;28;20021;-76
2022/04/26 15:45:36;;;;;;;6.05;2.33;;;;;;;;;;5055502;28;20028;-77
2022/04/26 15:48:03;;;;;;;4.40;2.00;;;;;;;;;;5055654;28;20021;-77
2022/04/26 15:50:28;;;;;;;5.43;2.17;;;;;;;;;;5055145;28;20333;-76
2022/04/26 15:52:54;;;;;;;2.53;2.08;;;;;;;;;;5055179;28;20114;-77
2022/04/26 15:55:21;;;;;;;3.00;1.90;;;;;;;;;;5055105;28;20017;-76
2022/04/26 15:57:47;;;;;;;2.55;2.15;;;;;;;;;;5055280;28;20035;-77
2022/04/26 16:00:13;;;;;;;3.00;1.95;;;;;;;;;;5054986;28;20033;-76
2022/04/26 16:02:40;;;;;;;4.38;2.20;;;;;;;;;;5055096;28;20112;-77
2022/04/26 16:05:06;;;;;;;4.30;2.10;;;;;;;;;;5053536;28;20048;-76
2022/04/26 16:07:31;;;;;;;2.53;2.13;;;;;;;;;;5055223;28;20065;-77
2022/04/26 16:20:51;;;;;;;4.07;2.28;;;;;;;;;;5054208;28;20032;-77
2022/04/26 16:23:17;;;;;;;3.57;2.50;;;;;;;;;;5054518;28;20135;-77
2022/04/26 16:25:42;;;;;;;3.20;2.25;;;;;;;;;;5054556;28;20269;-76
2022/04/26 16:28:07;;;;;;;2.75;2.28;;;;;;;;;;5053164;28;20533;-76
2022/04/26 16:30:33;;;;;;;2.90;2.13;;;;;;;;;;5054269;28;20365;-76
2022/04/26 16:32:59;;;;;;;4.13;2.40;;;;;;;;;;5054429;28;20613;-76
2022/04/26 16:35:24;;;;;;;4.15;2.60;;;;;;;;;;5054528;28;20056;-76
2022/04/26 16:37:50;;;;;;;4.57;2.28;;;;;;;;;;5054585;28;20594;-76
2022/04/26 16:40:15;;;;;;;3.88;2.67;;;;;;;;;;5054020;28;20127;-76
2022/04/26 16:42:40;;;;;;;3.28;2.50;;;;;;;;;;5054302;28;20044;-76
2022/04/26 16:45:08;;;;;;;3.72;2.55;;;;;;;;;;5052976;28;20486;-78
2022/04/26 16:47:33;;;;;;;4.30;2.42;;;;;;;;;;5054138;28;20025;-77
2022/04/26 16:50:08;;;;;;;4.25;2.70;;;;;;;;;;5054317;28;20029;-77
2022/04/26 16:52:35;;;;;;;5.20;3.00;;;;;;;;;;5052606;28;20043;-77
2022/04/26 16:55:01;;;;;;;3.80;2.75;;;;;;;;;;5054020;28;20135;-77
2022/04/26 16:57:28;;;;;;;3.65;2.50;;;;;;;;;;5054429;28;20087;-77
2022/04/26 16:59:53;;;;;;;3.72;2.67;;;;;;;;;;5054041;28;20147;-77
2022/04/26 17:02:19;;;;;;;3.38;2.30;;;;;;;;;;5052647;28;20056;-77
2022/04/26 17:04:44;;;;;;;3.72;2.70;;;;;;;;;;5054278;28;20094;-77
2022/04/26 17:07:10;;;;;;;3.63;2.27;;;;;;;;;;5053979;28;20033;-78
2022/04/26 17:09:36;;;;;;;3.83;2.42;;;;;;;;;;5053936;28;20271;-77
2022/04/26 17:12:04;;;;;;;10.38;2.80;;;;;;;;;;5052796;28;20485;-77
2022/04/26 17:14:31;;;;;;;12.48;2.80;;;;;;;;;;5053629;28;20501;-76
2022/04/26 17:16:57;;;;;;;3.00;2.40;;;;;;;;;;5054141;28;20028;-77
2022/04/26 17:19:22;;;;;;;4.78;2.67;;;;;;;;;;5052568;28;20127;-77
2022/04/26 17:21:47;;;;;;;4.63;2.70;;;;;;;;;;5054584;28;20421;-76
2022/04/26 17:27:05;;;;;;;3.97;2.45;;;;;;;;;;5052677;28;20040;-77
2022/04/26 17:29:30;;;;;;;4.47;2.20;;;;;;;;;;5052324;28;20120;-77
2022/04/26 17:31:56;;;;;;;3.30;2.40;;;;;;;;;;5053175;28;20023;-78
2022/04/26 17:34:22;;;;;;;5.03;2.78;;;;;;;;;;5053448;28;20328;-78
2022/04/26 17:36:48;;;;;;;3.40;2.50;;;;;;;;;;5052167;28;20025;-77
2022/04/26 17:39:14;;;;;;;5.13;2.75;;;;;;;;;;5053489;28;20048;-77
2022/04/26 17:41:40;;;;;;;4.93;2.47;;;;;;;;;;5053480;28;20025;-78
2022/04/26 17:44:07;;;;;;;5.80;2.95;;;;;;;;;;5053280;28;20375;-77
2022/04/26 17:46:32;;;;;;;5.72;2.67;;;;;;;;;;5051997;28;20059;-75
2022/04/26 17:48:58;;;;;;;4.95;2.63;;;;;;;;;;5053018;28;20071;-77
2022/04/26 17:51:23;;;;;;;3.40;2.47;;;;;;;;;;5053534;28;20032;-77
2022/04/26 17:56:34;;;;;;;3.90;2.60;;;;;;;;;;5053438;28;20444;-78
2022/04/26 17:59:01;;;;;;;4.32;2.38;;;;;;;;;;5053218;28;20029;-78
2022/04/26 18:01:27;;;;;;;5.30;2.80;;;;;;;;;;5051848;28;20032;-77
2022/04/26 18:03:52;;;;;;;5.60;2.80;;;;;;;;;;5053219;28;20428;-76
2022/04/26 18:06:18;;;;;;;4.28;2.70;;;;;;;;;;5053392;28;20025;-77
2022/04/26 18:08:44;;;;;;;4.40;3.25;;;;;;;;;;5052985;28;20082;-78
2022/04/26 18:11:09;;;;;;;4.10;2.95;;;;;;;;;;5052996;28;20060;-78
2022/04/26 18:13:35;;;;;;;4.88;2.75;;;;;;;;;;5053154;28;20030;-78
2022/04/26 18:16:02;;;;;;;4.38;2.83;;;;;;;;;;5053118;28;20048;-77
2022/04/26 18:18:30;;;;;;;4.10;2.80;;;;;;;;;;5053149;28;20031;-78
2022/04/26 18:20:57;;;;;;;4.50;2.72;;;;;;;;;;5052896;28;20103;-77
2022/04/26 18:23:23;;;;;;;4.07;2.78;;;;;;;;;;5051532;28;20036;-76
2022/04/26 18:28:32;;;;;;;6.63;3.83;;;;;;;;;;5053676;28;20441;-83
2022/04/26 18:30:59;;;;;;;6.35;3.60;;;;;;;;;;5052286;28;20029;-75
2022/04/26 18:33:25;;;;;;;6.70;3.15;;;;;;;;;;5053755;28;20386;-74
2022/04/26 18:35:50;;;;;;;6.32;3.90;;;;;;;;;;5052864;28;20032;-74
2022/04/26 18:38:15;;;;;;;5.83;3.97;;;;;;;;;;5053085;28;20098;-75
2022/04/26 18:40:40;;;;;;;8.98;3.88;;;;;;;;;;5052912;28;20261;-75
2022/04/26 18:43:06;;;;;;;5.53;3.47;;;;;;;;;;5055209;28;20021;-77
2022/04/26 18:45:32;;;;;;;4.43;3.17;;;;;;;;;;5058461;28;20040;-77
2022/04/26 18:47:57;;;;;;;5.03;3.00;;;;;;;;;;5055598;28;20017;-77
2022/04/26 18:50:23;;;;;;;5.30;3.40;;;;;;;;;;5057001;28;20112;-78
2022/04/26 18:52:48;;;;;;;4.72;2.85;;;;;;;;;;5057313;28;20273;-77
2022/04/26 18:55:13;;;;;;;5.40;3.15;;;;;;;;;;5056810;28;20017;-76
2022/04/26 18:57:39;;;;;;;5.50;3.20;;;;;;;;;;5056783;28;20071;-77
2022/04/26 19:00:05;;;;;;;5.20;3.20;;;;;;;;;;5056583;28;20044;-77
2022/04/26 19:02:30;;;;;;;5.25;3.10;;;;;;;;;;5056440;28;20765;-76
2022/04/26 19:04:56;;;;;;;4.80;3.30;;;;;;;;;;5056504;28;20025;-77
2022/04/26 19:07:21;;;;;;;5.17;3.33;;;;;;;;;;5056284;28;20261;-77
2022/04/26 19:12:30;;;;;;;4.78;3.25;;;;;;;;;;5056569;28;20040;-77
2022/04/26 19:14:55;;;;;;;5.30;3.70;;;;;;;;;;5056024;28;20033;-77